createdAt,value
2022-10-09T00:00:30.172Z,100805.38
2022-10-09T00:03:18.881Z,100801.06
2022-10-09T00:06:08.821Z,100796.81
2022-10-09T00:08:57.293Z,100807.13
2022-10-09T00:11:45.653Z,100792.63
2022-10-09T00:14:34.033Z,100786.59
2022-10-09T00:17:23.717Z,100789.06
2022-10-09T00:20:12.824Z,100777.72
2022-10-09T00:23:01.269Z,100767.38
2022-10-09T00:25:53.709Z,100764.75
2022-10-09T00:28:42.086Z,100769.81
2022-10-09T00:31:30.586Z,100779.31
2022-10-09T00:34:20.307Z,100769.91
2022-10-09T00:37:08.668Z,100772.34
2022-10-09T00:39:57.040Z,100768.84
2022-10-09T00:42:45.966Z,100768.81
2022-10-09T00:45:34.483Z,100761.13
2022-10-09T00:48:22.860Z,100762.03
2022-10-09T00:51:12.621Z,100763.75
2022-10-09T00:54:01.366Z,100768.03
2022-10-09T00:56:49.757Z,100767.19
2022-10-09T00:59:38.109Z,100761.19
2022-10-09T01:02:26.575Z,100769.81
2022-10-09T01:05:15.535Z,100769.81
2022-10-09T01:08:09.068Z,100760.53
2022-10-09T01:11:03.925Z,100756.22
2022-10-09T01:13:55.246Z,100750.13
2022-10-09T01:16:46.561Z,100761.38
2022-10-09T01:19:51.763Z,100750.22
2022-10-09T01:22:47.385Z,100745.03
2022-10-09T01:25:44.833Z,100751.97
2022-10-09T01:28:34.600Z,100751.13
2022-10-09T01:31:23.307Z,100752.81
2022-10-09T01:34:11.840Z,100743.38
2022-10-09T01:37:00.256Z,100751.13
2022-10-09T01:39:48.704Z,100745.09
2022-10-09T01:42:37.095Z,100727.84
2022-10-09T01:45:27.153Z,100745.94
2022-10-09T01:48:19.061Z,100730.56
2022-10-09T01:51:07.491Z,100735.78
2022-10-09T01:53:55.910Z,100727.31
2022-10-09T01:56:44.336Z,100727.31
2022-10-09T01:59:32.700Z,100726.41
2022-10-09T02:02:22.578Z,100730.75
2022-10-09T02:05:11.568Z,100715.28
2022-10-09T02:07:59.968Z,100719.56
2022-10-09T02:10:48.875Z,100723.09
2022-10-09T02:13:37.266Z,100714.63
2022-10-09T02:16:34.792Z,100724.91
2022-10-09T02:19:29.441Z,100721.53
2022-10-09T02:22:19.950Z,100719.84
2022-10-09T02:25:08.809Z,100717.34
2022-10-09T02:27:57.250Z,100707.94
2022-10-09T02:30:49.310Z,100712.28
2022-10-09T02:33:38.101Z,100713.00
2022-10-09T02:36:28.191Z,100704.38
2022-10-09T02:39:16.579Z,100703.47
2022-10-09T02:42:05.400Z,100706.84
2022-10-09T02:44:53.862Z,100706.66
2022-10-09T02:47:42.271Z,100700.53
2022-10-09T02:50:30.669Z,100703.81
2022-10-09T02:53:20.461Z,100702.09
2022-10-09T02:56:08.870Z,100702.03
2022-10-09T02:58:57.426Z,100700.31
2022-10-09T03:01:45.853Z,100702.88
2022-10-09T03:04:34.268Z,100700.38
2022-10-09T03:07:22.690Z,100699.50
2022-10-09T03:10:12.688Z,100697.72
2022-10-09T03:13:01.061Z,100701.09
2022-10-09T03:15:49.484Z,100702.72
2022-10-09T03:18:38.098Z,100701.81
2022-10-09T03:21:27.714Z,100702.59
2022-10-09T03:24:16.104Z,100696.53
2022-10-09T03:27:05.811Z,100690.47
2022-10-09T03:29:54.251Z,100692.19
2022-10-09T03:32:42.634Z,100693.00
2022-10-09T03:35:31.059Z,100697.31
2022-10-09T03:38:19.480Z,100694.66
2022-10-09T03:41:07.951Z,100689.50
2022-10-09T03:43:57.686Z,100695.44
2022-10-09T03:46:46.580Z,100699.78
2022-10-09T03:49:34.979Z,100692.88
2022-10-09T03:52:23.521Z,100701.44
2022-10-09T03:55:11.911Z,100698.03
2022-10-09T03:58:00.395Z,100694.56
2022-10-09T04:00:51.227Z,100703.16
2022-10-09T04:03:39.624Z,100709.16
2022-10-09T04:06:27.982Z,100702.31
2022-10-09T04:09:16.361Z,100708.28
2022-10-09T04:12:05.051Z,100705.69
2022-10-09T04:14:53.457Z,100698.94
2022-10-09T04:17:43.234Z,100701.56
2022-10-09T04:20:31.721Z,100698.19
2022-10-09T04:23:20.387Z,100707.72
2022-10-09T04:26:08.750Z,100705.25
2022-10-09T04:28:57.212Z,100690.63
2022-10-09T04:31:45.648Z,100701.91
2022-10-09T04:34:35.564Z,100701.09
2022-10-09T04:37:23.959Z,100697.72
2022-10-09T04:40:12.357Z,100698.66
2022-10-09T04:43:00.778Z,100697.81
2022-10-09T04:45:49.192Z,100697.94
2022-10-09T04:48:40.999Z,100698.84
2022-10-09T04:51:30.767Z,100694.69
2022-10-09T04:54:19.179Z,100686.19
2022-10-09T04:57:07.583Z,100694.06
2022-10-09T04:59:55.974Z,100691.53
2022-10-09T05:02:44.373Z,100688.16
2022-10-09T05:05:33.257Z,100689.94
2022-10-09T05:08:23.066Z,100685.69
2022-10-09T05:11:12.730Z,100686.63
2022-10-09T05:14:01.665Z,100688.44
2022-10-09T05:17:12.496Z,100688.56
2022-10-09T05:20:00.482Z,100688.69
2022-10-09T05:22:49.256Z,100688.75
2022-10-09T05:25:39.073Z,100687.09
2022-10-09T05:28:27.526Z,100697.53
2022-10-09T05:31:20.055Z,100687.25
2022-10-09T05:34:08.532Z,100699.31
2022-10-09T05:36:56.890Z,100701.03
2022-10-09T05:39:45.607Z,100699.31
2022-10-09T05:42:35.316Z,100701.91
2022-10-09T05:45:23.952Z,100706.22
2022-10-09T05:48:12.365Z,100705.41
2022-10-09T05:51:11.846Z,100700.25
2022-10-09T05:54:01.842Z,100708.81
2022-10-09T05:56:50.250Z,100702.75
2022-10-09T05:59:39.954Z,100700.13
2022-10-09T06:02:28.433Z,100704.34
2022-10-09T06:04:56.471Z,100697.41
2022-10-09T06:07:24.595Z,100694.75
2022-10-09T06:09:52.655Z,100695.56
2022-10-09T06:12:20.776Z,100690.34
2022-10-09T06:14:50.217Z,100683.41
2022-10-09T06:17:18.280Z,100697.09
2022-10-09T06:19:46.349Z,100697.00
2022-10-09T06:22:14.447Z,100694.34
2022-10-09T06:24:42.533Z,100696.81
2022-10-09T06:27:13.048Z,100697.63
2022-10-09T06:29:41.115Z,100700.09
2022-10-09T06:32:10.534Z,100697.38
2022-10-09T06:34:38.645Z,100699.78
2022-10-09T06:37:06.677Z,100703.00
2022-10-09T06:39:35.973Z,100698.28
2022-10-09T06:42:04.269Z,100699.50
2022-10-09T06:44:43.318Z,100695.22
2022-10-09T06:47:14.045Z,100692.16
2022-10-09T06:49:42.128Z,100685.88
2022-10-09T06:52:10.339Z,100682.69
2022-10-09T06:54:38.486Z,100676.06
2022-10-09T06:57:06.583Z,100688.44
2022-10-09T06:59:34.659Z,100675.13
2022-10-09T07:02:02.969Z,100679.16
2022-10-09T07:04:32.762Z,100681.41
2022-10-09T07:07:00.838Z,100679.34
2022-10-09T07:09:28.909Z,100670.69
2022-10-09T07:11:57.061Z,100678.56
2022-10-09T07:14:25.245Z,100679.13
2022-10-09T07:16:53.483Z,100686.00
2022-10-09T07:19:21.755Z,100676.16
2022-10-09T07:21:51.224Z,100667.44
2022-10-09T07:24:20.545Z,100673.91
2022-10-09T07:26:49.075Z,100671.47
2022-10-09T07:29:18.143Z,100671.59
2022-10-09T07:31:46.246Z,100677.13
2022-10-09T07:34:14.381Z,100668.44
2022-10-09T07:36:42.542Z,100667.97
2022-10-09T07:39:12.024Z,100658.53
2022-10-09T07:41:40.138Z,100673.03
2022-10-09T07:44:08.226Z,100662.38
2022-10-09T07:46:36.331Z,100658.16
2022-10-09T07:49:04.889Z,100654.53
2022-10-09T07:51:33.070Z,100658.09
2022-10-09T07:54:01.888Z,100657.56
2022-10-09T07:56:32.663Z,100652.09
2022-10-09T07:59:01.990Z,100659.03
2022-10-09T08:01:31.398Z,100663.56
2022-10-09T08:03:59.827Z,100655.38
2022-10-09T08:06:28.176Z,100662.59
2022-10-09T08:08:57.497Z,100664.28
2022-10-09T08:11:26.580Z,100658.66
2022-10-09T08:13:56.276Z,100664.03
2022-10-09T08:16:25.039Z,100657.03
2022-10-09T08:18:56.588Z,100656.91
2022-10-09T08:21:24.761Z,100650.03
2022-10-09T08:23:56.659Z,100655.13
2022-10-09T08:26:25.533Z,100649.41
2022-10-09T08:28:55.914Z,100648.56
2022-10-09T08:31:25.029Z,100649.47
2022-10-09T08:33:54.276Z,100647.47
2022-10-09T08:36:22.468Z,100651.84
2022-10-09T08:38:50.523Z,100651.78
2022-10-09T08:41:27.118Z,100649.91
2022-10-09T08:44:02.340Z,100642.91
2022-10-09T08:46:33.783Z,100641.78
2022-10-09T08:49:01.976Z,100643.66
2022-10-09T08:51:32.222Z,100642.59
2022-10-09T08:54:04.109Z,100639.13
2022-10-09T08:56:33.108Z,100643.56
2022-10-09T08:59:03.008Z,100644.34
2022-10-09T09:01:34.996Z,100639.75
2022-10-09T09:04:30.207Z,100632.03
2022-10-09T09:07:03.512Z,100631.09
2022-10-09T09:09:38.929Z,100632.28
2022-10-09T09:12:12.211Z,100630.09
2022-10-09T09:14:51.470Z,100633.34
2022-10-09T09:17:23.964Z,100632.75
2022-10-09T09:20:01.066Z,100617.84
2022-10-09T09:22:29.164Z,100614.16
2022-10-09T09:24:58.791Z,100623.59
2022-10-09T09:27:30.062Z,100618.03
2022-10-09T09:30:04.133Z,100612.47
2022-10-09T09:32:33.041Z,100611.06
2022-10-09T09:35:09.162Z,100613.78
2022-10-09T09:37:37.922Z,100608.06
2022-10-09T09:42:56.956Z,100603.44
2022-10-09T09:45:26.935Z,100593.91
2022-10-09T09:47:57.554Z,100596.31
2022-10-09T09:50:48.570Z,100591.72
2022-10-09T09:53:27.079Z,100584.81
2022-10-09T09:55:55.352Z,100578.28
2022-10-09T09:58:23.449Z,100578.41
2022-10-09T10:00:56.993Z,100567.72
2022-10-09T10:03:25.518Z,100575.50
2022-10-09T10:05:53.668Z,100556.06
2022-10-09T10:08:24.849Z,100557.84
2022-10-09T10:10:56.608Z,100550.59
2022-10-09T10:13:31.713Z,100552.63
2022-10-09T10:16:01.313Z,100546.19
2022-10-09T10:18:32.152Z,100550.81
2022-10-09T10:21:04.403Z,100543.09
2022-10-09T10:23:36.811Z,100541.28
2022-10-09T10:26:09.501Z,100532.09
2022-10-09T10:28:46.824Z,100531.75
2022-10-09T10:31:24.258Z,100533.66
2022-10-09T10:33:54.683Z,100511.66
2022-10-09T10:36:22.745Z,100529.09
2022-10-09T10:38:53.560Z,100522.66
2022-10-09T10:41:24.413Z,100515.25
2022-10-09T10:43:55.371Z,100506.88
2022-10-09T10:46:26.993Z,100502.72
2022-10-09T10:48:55.066Z,100503.44
2022-10-09T10:51:47.569Z,100502.69
2022-10-09T10:54:26.827Z,100507.00
2022-10-09T10:56:57.568Z,100495.03
2022-10-09T10:59:39.525Z,100495.53
2022-10-09T11:02:56.535Z,100489.19
2022-10-09T11:05:32.213Z,100498.50
2022-10-09T11:08:09.615Z,100481.28
2022-10-09T11:10:42.313Z,100472.38
2022-10-09T11:13:14.278Z,100475.84
2022-10-09T11:15:51.001Z,100467.34
2022-10-09T11:18:34.206Z,100464.16
2022-10-09T11:21:22.971Z,100460.69
2022-10-09T11:24:02.320Z,100454.19
2022-10-09T11:26:33.129Z,100461.75
2022-10-09T11:29:03.629Z,100447.84
2022-10-09T11:31:34.800Z,100448.22
2022-10-09T11:34:09.209Z,100444.84
2022-10-09T11:36:40.824Z,100447.06
2022-10-09T11:39:14.072Z,100442.66
2022-10-09T11:41:42.245Z,100439.13
2022-10-09T11:44:27.743Z,100436.78
2022-10-09T11:47:02.159Z,100436.50
2022-10-09T11:49:37.279Z,100433.59
2022-10-09T11:52:12.890Z,100423.63
2022-10-09T11:54:41.063Z,100421.75
2022-10-09T11:57:14.351Z,100409.38
2022-10-09T11:59:48.870Z,100405.72
2022-10-09T12:02:26.596Z,100400.47
2022-10-09T12:04:56.795Z,100410.00
2022-10-09T12:07:33.481Z,100401.56
2022-10-09T12:10:04.841Z,100408.06
2022-10-09T12:12:33.303Z,100399.81
2022-10-09T12:15:24.812Z,100391.75
2022-10-09T12:17:52.932Z,100390.63
2022-10-09T12:20:24.796Z,100387.25
2022-10-09T12:23:21.360Z,100369.28
2022-10-09T12:25:45.641Z,100375.56
2022-10-09T12:28:22.706Z,100354.78
2022-10-09T12:30:50.924Z,100360.38
2022-10-09T12:33:23.578Z,100355.13
2022-10-09T12:36:02.029Z,100350.34
2022-10-09T12:38:31.541Z,100351.31
2022-10-09T12:41:01.495Z,100343.25
2022-10-09T12:43:29.587Z,100347.28
2022-10-09T12:45:57.952Z,100343.94
2022-10-09T12:48:27.109Z,100347.41
2022-10-09T12:50:55.368Z,100332.91
2022-10-09T12:53:26.101Z,100326.06
2022-10-09T12:55:56.040Z,100329.66
2022-10-09T12:58:26.362Z,100327.06
2022-10-09T13:00:56.445Z,100322.47
2022-10-09T13:03:26.089Z,100309.25
2022-10-09T13:05:54.241Z,100306.09
2022-10-09T13:08:28.913Z,100305.88
2022-10-09T13:10:56.998Z,100296.19
2022-10-09T13:13:27.525Z,100298.72
2022-10-09T13:16:02.989Z,100287.50
2022-10-09T13:18:31.197Z,100274.63
2022-10-09T13:21:01.186Z,100273.78
2022-10-09T13:23:33.085Z,100282.13
2022-10-09T13:26:03.690Z,100276.28
2022-10-09T13:28:32.313Z,100266.84
2022-10-09T13:31:07.633Z,100262.28
2022-10-09T13:33:35.938Z,100266.03
2022-10-09T13:36:04.370Z,100261.44
2022-10-09T13:38:35.048Z,100266.31
2022-10-09T13:41:03.849Z,100253.28
2022-10-09T13:43:32.104Z,100258.81
2022-10-09T13:46:00.340Z,100253.13
2022-10-09T13:48:31.214Z,100255.72
2022-10-09T13:50:59.911Z,100250.16
2022-10-09T13:53:28.363Z,100241.56
2022-10-09T13:56:00.882Z,100237.84
2022-10-09T13:58:29.521Z,100237.69
2022-10-09T14:00:58.129Z,100236.75
2022-10-09T14:03:26.281Z,100237.16
2022-10-09T14:05:59.040Z,100229.38
2022-10-09T14:08:27.245Z,100224.59
2022-10-09T14:10:56.784Z,100224.88
2022-10-09T14:13:24.882Z,100219.63
2022-10-09T14:15:53.147Z,100217.41
2022-10-09T14:18:21.299Z,100215.47
2022-10-09T14:20:49.519Z,100211.44
2022-10-09T14:23:17.583Z,100208.78
2022-10-09T14:25:45.658Z,100215.19
2022-10-09T14:28:15.164Z,100204.94
2022-10-09T14:30:43.815Z,100190.28
2022-10-09T14:33:12.545Z,100197.47
2022-10-09T14:35:40.639Z,100199.41
2022-10-09T14:38:08.795Z,100191.78
2022-10-09T14:40:37.847Z,100187.06
2022-10-09T14:43:06.001Z,100191.94
2022-10-09T14:45:35.539Z,100188.88
2022-10-09T14:48:03.727Z,100188.34
2022-10-09T14:50:31.884Z,100177.69
2022-10-09T14:53:00.038Z,100176.47
2022-10-09T14:55:28.170Z,100165.66
2022-10-09T14:57:56.364Z,100165.25
2022-10-09T15:00:24.572Z,100159.56
2022-10-09T15:02:56.371Z,100164.84
2022-10-09T15:05:27.105Z,100156.25
2022-10-09T15:07:55.204Z,100144.31
2022-10-09T15:10:23.276Z,100152.63
2022-10-09T15:12:51.399Z,100139.34
2022-10-09T15:15:19.561Z,100139.88
2022-10-09T15:17:47.901Z,100142.41
2022-10-09T15:20:17.765Z,100137.13
2022-10-09T15:22:45.850Z,100139.31
2022-10-09T15:25:15.630Z,100137.38
2022-10-09T15:27:43.785Z,100141.25
2022-10-09T15:30:13.309Z,100148.31
2022-10-09T15:32:41.411Z,100137.78
2022-10-09T15:35:10.575Z,100140.84
2022-10-09T15:37:40.608Z,100132.63
2022-10-09T15:40:10.068Z,100133.03
2022-10-09T15:42:41.262Z,100130.63
2022-10-09T15:45:10.209Z,100123.91
2022-10-09T15:47:50.754Z,100125.22
2022-10-09T15:50:19.354Z,100121.00
2022-10-09T15:52:50.135Z,100111.16
2022-10-09T15:55:18.471Z,100111.41
2022-10-09T15:57:46.680Z,100112.31
2022-10-09T16:00:15.831Z,100108.34
2022-10-09T16:02:43.955Z,100103.56
2022-10-09T16:05:12.066Z,100099.25
2022-10-09T16:07:41.323Z,100096.72
2022-10-09T16:10:11.630Z,100103.03
2022-10-09T16:12:39.742Z,100091.63
2022-10-09T16:15:09.512Z,100110.00
2022-10-09T16:17:37.808Z,100104.53
2022-10-09T16:20:07.455Z,100107.16
2022-10-09T16:22:35.581Z,100099.09
2022-10-09T16:25:03.856Z,100108.66
2022-10-09T16:27:33.583Z,100104.78
2022-10-09T16:30:01.729Z,100108.84
2022-10-09T16:32:30.869Z,100101.78
2022-10-09T16:34:59.004Z,100113.44
2022-10-09T16:37:27.110Z,100115.97
2022-10-09T16:39:55.210Z,100114.53
2022-10-09T16:42:23.340Z,100120.78
2022-10-09T16:44:52.926Z,100118.41
2022-10-09T16:47:21.017Z,100120.28
2022-10-09T16:49:49.106Z,100118.03
2022-10-09T16:52:17.246Z,100116.88
2022-10-09T16:54:45.581Z,100118.06
2022-10-09T16:57:13.662Z,100114.97
2022-10-09T16:59:42.012Z,100125.38
2022-10-09T17:02:12.654Z,100115.25
2022-10-09T17:04:41.608Z,100119.97
2022-10-09T17:07:10.235Z,100125.06
2022-10-09T17:09:40.279Z,100126.19
2022-10-09T17:12:10.022Z,100123.63
2022-10-09T17:14:38.513Z,100125.44
2022-10-09T17:17:07.464Z,100129.66
2022-10-09T17:19:39.242Z,100128.66
2022-10-09T17:22:07.653Z,100126.09
2022-10-09T17:24:35.763Z,100129.44
2022-10-09T17:27:04.821Z,100125.72
2022-10-09T17:29:33.408Z,100123.97
2022-10-09T17:32:01.952Z,100135.72
2022-10-09T17:34:30.169Z,100127.50
2022-10-09T17:36:59.694Z,100126.16
2022-10-09T17:39:28.375Z,100124.81
2022-10-09T17:41:56.576Z,100126.66
2022-10-09T17:44:25.878Z,100126.06
2022-10-09T17:46:53.984Z,100132.56
2022-10-09T17:49:22.033Z,100125.16
2022-10-09T17:51:52.439Z,100134.91
2022-10-09T17:54:21.903Z,100128.22
2022-10-09T17:56:50.438Z,100120.69
2022-10-09T17:59:18.575Z,100130.50
2022-10-09T18:01:47.290Z,100136.00
2022-10-09T18:04:16.470Z,100134.63
2022-10-09T18:06:44.684Z,100126.41
2022-10-09T18:09:12.803Z,100131.09
2022-10-09T18:11:42.546Z,100130.63
2022-10-09T18:14:11.952Z,100130.94
2022-10-09T18:16:40.162Z,100131.38
2022-10-09T18:19:11.419Z,100130.00
2022-10-09T18:21:40.238Z,100129.47
2022-10-09T18:24:08.274Z,100132.25
2022-10-09T18:26:36.382Z,100126.47
2022-10-09T18:29:05.900Z,100121.44
2022-10-09T18:31:34.084Z,100119.16
2022-10-09T18:34:02.290Z,100109.94
2022-10-09T18:36:33.429Z,100111.75
2022-10-09T18:39:03.558Z,100110.09
2022-10-09T18:41:31.686Z,100109.97
2022-10-09T18:44:01.038Z,100107.28
2022-10-09T18:46:32.378Z,100104.47
2022-10-09T18:49:00.500Z,100094.78
2022-10-09T18:51:28.605Z,100091.91
2022-10-09T18:53:58.802Z,100094.81
2022-10-09T18:56:26.895Z,100098.66
2022-10-09T18:58:55.055Z,100090.44
2022-10-09T19:01:23.201Z,100087.38
2022-10-09T19:03:52.698Z,100086.81
2022-10-09T19:06:20.943Z,100079.41
2022-10-09T19:08:49.031Z,100083.13
2022-10-09T19:11:17.217Z,100078.41
2022-10-09T19:13:47.370Z,100095.13
2022-10-09T19:16:15.541Z,100097.34
2022-10-09T19:18:43.621Z,100087.66
2022-10-09T19:21:14.986Z,100086.56
2022-10-09T19:23:43.848Z,100087.19
2022-10-09T19:26:13.505Z,100090.53
2022-10-09T19:28:41.703Z,100089.53
2022-10-09T19:31:10.725Z,100079.81
2022-10-09T19:33:39.791Z,100081.50
2022-10-09T19:36:08.654Z,100076.16
2022-10-09T19:38:38.119Z,100073.56
2022-10-09T19:41:06.727Z,100068.38
2022-10-09T19:43:34.940Z,100065.78
2022-10-09T19:46:04.315Z,100061.34
2022-10-09T19:48:32.734Z,100063.94
2022-10-09T19:51:00.871Z,100053.56
2022-10-09T19:53:29.090Z,100059.50
2022-10-09T19:55:58.510Z,100053.56
2022-10-09T19:58:26.695Z,100041.59
2022-10-09T20:00:55.009Z,100044.19
2022-10-09T20:03:42.439Z,100040.84
2022-10-09T20:06:30.777Z,100032.31
2022-10-09T20:09:20.697Z,100036.69
2022-10-09T20:12:10.432Z,100039.28
2022-10-09T20:14:59.427Z,100041.09
2022-10-09T20:17:47.816Z,100038.69
2022-10-09T20:20:36.981Z,100037.00
2022-10-09T20:23:25.372Z,100034.41
2022-10-09T20:26:15.248Z,100035.34
2022-10-09T20:29:06.991Z,100033.66
2022-10-09T20:31:55.558Z,100034.66
2022-10-09T20:34:44.090Z,100037.31
2022-10-09T20:37:33.405Z,100035.72
2022-10-09T20:40:21.753Z,100037.47
2022-10-09T20:43:10.156Z,100035.66
2022-10-09T20:45:59.915Z,100032.13
2022-10-09T20:48:48.483Z,100023.53
2022-10-09T20:51:37.533Z,100022.13
2022-10-09T20:54:25.934Z,100019.41
2022-10-09T20:57:14.315Z,100021.94
2022-10-09T21:00:03.775Z,100027.13
2022-10-09T21:02:53.530Z,100025.28
2022-10-09T21:05:43.011Z,100029.63
2022-10-09T21:08:31.530Z,100017.75
2022-10-09T21:11:20.115Z,100019.78
2022-10-09T21:14:08.743Z,100017.25
2022-10-09T21:16:57.167Z,100028.44
2022-10-09T21:19:47.135Z,100030.22
2022-10-09T21:22:35.530Z,100029.28
2022-10-09T21:25:23.906Z,100029.28
2022-10-09T21:28:12.313Z,100031.09
2022-10-09T21:31:00.783Z,100033.88
2022-10-09T21:33:49.237Z,100027.75
2022-10-09T21:36:56.132Z,100028.63
2022-10-09T21:39:50.465Z,100020.97
2022-10-09T21:42:38.839Z,100020.16
2022-10-09T21:45:27.222Z,100015.03
2022-10-09T21:48:16.242Z,100016.03
2022-10-09T21:51:04.740Z,100007.50
2022-10-09T21:53:55.519Z,100018.06
2022-10-09T21:56:43.857Z,100008.00
2022-10-09T21:59:32.311Z,100008.19
2022-10-09T22:02:20.706Z,100009.25
2022-10-09T22:05:10.039Z,100007.72
2022-10-09T22:07:58.404Z,100000.13
2022-10-09T22:10:49.570Z,100006.44
2022-10-09T22:13:38.032Z,100001.38
2022-10-09T22:16:26.403Z,100004.78
2022-10-09T22:19:14.923Z,99997.84
2022-10-09T22:22:03.293Z,99997.09
2022-10-09T22:24:51.681Z,100000.50
2022-10-09T22:27:41.555Z,99998.84
2022-10-09T22:30:30.039Z,99991.91
2022-10-09T22:33:18.373Z,99991.00
2022-10-09T22:36:09.316Z,99994.31
2022-10-09T22:39:00.202Z,99994.31
2022-10-09T22:41:48.539Z,99991.72
2022-10-09T22:44:38.375Z,99997.84
2022-10-09T22:47:26.799Z,99993.50
2022-10-09T22:50:15.361Z,99991.72
2022-10-09T22:53:03.759Z,99993.44
2022-10-09T22:55:52.194Z,99986.72
2022-10-09T22:58:40.566Z,99981.53
2022-10-09T23:01:33.093Z,99982.31
2022-10-09T23:04:22.007Z,99988.25
2022-10-09T23:07:11.008Z,99976.19
2022-10-09T23:09:59.627Z,99976.19
2022-10-09T23:12:49.217Z,99968.34
2022-10-09T23:15:37.972Z,99970.88
2022-10-09T23:18:27.730Z,99972.53
2022-10-09T23:21:17.570Z,99972.53
2022-10-09T23:24:06.393Z,99972.47
2022-10-09T23:26:54.777Z,99971.72
2022-10-09T23:29:43.137Z,99979.66
2022-10-09T23:32:31.489Z,99978.88
2022-10-09T23:35:21.163Z,99976.19
2022-10-09T23:38:09.528Z,99972.72
2022-10-09T23:40:58.488Z,99971.88
2022-10-09T23:43:47.118Z,99966.19
2022-10-09T23:46:37.530Z,99962.09
2022-10-09T23:49:25.934Z,99961.59
2022-10-09T23:52:15.630Z,99966.00
2022-10-09T23:55:04.105Z,99964.41
2022-10-09T23:57:52.437Z,99964.72
